RLDRICHLAND
METARs for airports near RLD, sorted by distance:
N 0 nm 394' KRLD 222255Z 00000KT 10SM CLR 05/01 A3058
E 8 nm 410' KPSC 222253Z 35007KT 10SM CLR 05/00 A3058
S 28 nm 644' KHRI 222253Z 19003KT 7SM BKN004 02/01 A3055
SE 41 nm 1496' KPDT 222253Z 30007KT 10SM CLR 07/03 A3050
E 44 nm 1194' KALW 222301Z 29005KT 1/2SM FG VV001 02/02 A3053
W 53 nm 1098' KYKM 222253Z 00000KT 10SM CLR 04/M03 A3053
N 54 nm 1188' KMWH 222252Z 04003KT 10SM OVC006 01/M02 A3056
N 60 nm 1276' KEPH 222253Z 01010KT 10SM BKN006 M01/M03 A3055
NW 66 nm 1763' KELN 222253Z 00000KT 10SM CLR 00/M05 A3051
NW 75 nm 1248' KEAT 222255Z 09005KT 10SM CLR M02/M03 A3055
SE 81 nm 2717' KLGD 222256Z 00000KT 10SM CLR 04/M01 A3047
SW 88 nm 246' KDLS 222303Z 00000KT 10SM OVC010 04/01 A3056
E 94 nm 2566' KPUW 222253Z 09005KT 10SM CLR 04/M01 A3050
E 94 nm 1442' KLWS 222256Z 00000KT 7SM OVC005 01/M01 A3054
TAFs for airports near RLD, sorted by distance:
E 8 nm 410' KPSC TAF
  AMD KPSC 222125Z 2221/2318 VRB04KT P6SM SCT010
  FM230300 VRB04KT 4SM BR SCT002
  FM230500 VRB04KT 1/2SM FZFG BKN002
SE 41 nm 1496' KPDT KPDT 222128Z 2221/2318 VRB05KT P6SM FEW250
  FM230600 33004KT 6SM BR FEW001 SCT200
  FM230800 VRB03KT 4SM BR SCT001 SCT200
  FM231000 VRB02KT 1/2SM FZFG VV002
E 44 nm 1194' KALW TAF
  AMD KALW 222122Z 2221/2318 VRB04KT 1/2SM FG VV002
  TEMPO 2221/2301 3SM BR OVC005
  FM230400 VRB03KT 1/2SM FZFG VV002
W 53 nm 1098' KYKM KYKM 221738Z 2218/2318 VRB04KT P6SM FEW250
  FM230800 28004KT 4SM BR SCT001 SCT200
  FM231400 29002KT 1SM BR BKN005
N 54 nm 1188' KMWH KMWH 222047Z 2221/2318 33004KT 1/4SM FZFG VV002
  TEMPO 2223/2303 1/2SM FZFG OVC002
  FM230400 35004KT 1/4SM FZFG VV001
NW 75 nm 1248' KEAT TAF COR KEAT 221749Z 2218/2318 VRB04KT 3SM BR SCT001
  TEMPO 2218/2221 1/4SM FZFG VV001
  FM222200 VRB03KT 6SM BR FEW250
  FM230200 VRB02KT 1/4SM FZFG VV002
SW 88 nm 246' KDLS TAF
  AMD KDLS 222111Z 2221/2318 VRB03KT P6SM OVC007
  FM230600 10003KT 5SM BR OVC010
  FM231400 10003KT 1SM BR OVC005
E 94 nm 2566' KPUW KPUW 221739Z 2218/2318 VRB04KT P6SM SCT250
E 94 nm 1442' KLWS KLWS 221754Z 2218/2318 00000KT 2SM BR OVC003
  FM222200 VRB03KT 6SM BR BKN003
  FM230200 VRB02KT 1/2SM FG OVC002

Shortcut to this page: http://wxbay.com.

Data may contain errors.